sensor_id;sensor_type;location;lat;lon;timestamp;pressure;altitude;pressure_sealevel;temperature;humidity
70009;BME280;59542;37.950;-122.338;2023-04-29T00:01:42;101276.44;;;18.10;60.65
70009;BME280;59542;37.950;-122.338;2023-04-29T00:04:08;101284.75;;;17.92;61.64
70009;BME280;59542;37.950;-122.338;2023-04-29T00:06:35;101284.56;;;17.82;61.24
70009;BME280;59542;37.950;-122.338;2023-04-29T00:09:01;101291.03;;;17.52;63.21
70009;BME280;59542;37.950;-122.338;2023-04-29T00:11:29;101294.66;;;17.29;64.21
70009;BME280;59542;37.950;-122.338;2023-04-29T00:13:55;101288.53;;;17.34;64.41
70009;BME280;59542;37.950;-122.338;2023-04-29T00:16:21;101294.56;;;17.12;64.42
70009;BME280;59542;37.950;-122.338;2023-04-29T00:18:48;101297.22;;;16.72;66.19
70009;BME280;59542;37.950;-122.338;2023-04-29T00:21:14;101299.03;;;17.19;65.46
70009;BME280;59542;37.950;-122.338;2023-04-29T00:23:41;101300.13;;;17.06;65.27
70009;BME280;59542;37.950;-122.338;2023-04-29T00:26:07;101305.06;;;16.97;65.73
70009;BME280;59542;37.950;-122.338;2023-04-29T00:28:33;101295.66;;;16.88;65.95
70009;BME280;59542;37.950;-122.338;2023-04-29T00:30:59;101294.50;;;16.84;66.59
70009;BME280;59542;37.950;-122.338;2023-04-29T00:33:26;101308.47;;;16.93;65.75
70009;BME280;59542;37.950;-122.338;2023-04-29T00:35:52;101315.97;;;17.02;65.73
70009;BME280;59542;37.950;-122.338;2023-04-29T00:38:18;101306.59;;;16.81;66.14
70009;BME280;59542;37.950;-122.338;2023-04-29T00:40:46;101314.53;;;16.53;66.94
70009;BME280;59542;37.950;-122.338;2023-04-29T00:43:12;101317.34;;;16.34;67.88
70009;BME280;59542;37.950;-122.338;2023-04-29T00:45:38;101310.50;;;16.20;68.41
70009;BME280;59542;37.950;-122.338;2023-04-29T00:48:05;101312.06;;;15.86;69.86
70009;BME280;59542;37.950;-122.338;2023-04-29T00:50:31;101319.47;;;15.91;70.28
70009;BME280;59542;37.950;-122.338;2023-04-29T00:52:58;101309.22;;;16.11;69.72
70009;BME280;59542;37.950;-122.338;2023-04-29T00:55:24;101319.09;;;16.29;69.05
70009;BME280;59542;37.950;-122.338;2023-04-29T00:57:52;101323.44;;;16.18;68.98
70009;BME280;59542;37.950;-122.338;2023-04-29T01:00:18;101318.25;;;16.17;69.05
70009;BME280;59542;37.950;-122.338;2023-04-29T01:02:45;101323.13;;;15.66;70.16
70009;BME280;59542;37.950;-122.338;2023-04-29T01:05:12;101322.97;;;15.61;70.62
70009;BME280;59542;37.950;-122.338;2023-04-29T01:08:08;101318.38;;;15.43;72.09
70009;BME280;59542;37.950;-122.338;2023-04-29T01:10:55;101317.94;;;15.46;72.01
70009;BME280;59542;37.950;-122.338;2023-04-29T01:13:33;101319.25;;;15.44;72.30
70009;BME280;59542;37.950;-122.338;2023-04-29T01:16:02;101320.50;;;15.41;72.48
70009;BME280;59542;37.950;-122.338;2023-04-29T01:18:36;101322.81;;;15.38;72.25
70009;BME280;59542;37.950;-122.338;2023-04-29T01:21:06;101323.66;;;15.38;72.58
70009;BME280;59542;37.950;-122.338;2023-04-29T01:23:32;101323.44;;;15.21;72.79
70009;BME280;59542;37.950;-122.338;2023-04-29T01:25:59;101315.63;;;14.95;73.63
70009;BME280;59542;37.950;-122.338;2023-04-29T01:28:38;101312.13;;;14.94;73.70
70009;BME280;59542;37.950;-122.338;2023-04-29T01:31:10;101315.75;;;14.82;74.10
70009;BME280;59542;37.950;-122.338;2023-04-29T01:36:52;101317.59;;;14.63;75.87
70009;BME280;59542;37.950;-122.338;2023-04-29T01:39:44;101307.19;;;14.41;75.98
70009;BME280;59542;37.950;-122.338;2023-04-29T01:42:38;101305.72;;;14.45;76.32
70009;BME280;59542;37.950;-122.338;2023-04-29T01:45:07;101309.66;;;14.49;76.41
70009;BME280;59542;37.950;-122.338;2023-04-29T01:47:36;101306.22;;;14.61;76.06
70009;BME280;59542;37.950;-122.338;2023-04-29T01:50:02;101301.78;;;14.41;76.83
70009;BME280;59542;37.950;-122.338;2023-04-29T01:52:29;101311.47;;;14.24;77.88
70009;BME280;59542;37.950;-122.338;2023-04-29T01:54:56;101302.88;;;14.09;78.36
70009;BME280;59542;37.950;-122.338;2023-04-29T01:57:22;101305.53;;;14.40;77.70
70009;BME280;59542;37.950;-122.338;2023-04-29T01:59:48;101304.22;;;14.24;77.89
70009;BME280;59542;37.950;-122.338;2023-04-29T02:02:14;101303.38;;;14.24;77.72
70009;BME280;59542;37.950;-122.338;2023-04-29T02:04:42;101314.38;;;14.22;77.90
70009;BME280;59542;37.950;-122.338;2023-04-29T02:07:08;101307.00;;;14.11;78.66
70009;BME280;59542;37.950;-122.338;2023-04-29T02:09:34;101305.19;;;14.30;78.00
70009;BME280;59542;37.950;-122.338;2023-04-29T02:12:01;101306.25;;;13.97;78.73
70009;BME280;59542;37.950;-122.338;2023-04-29T02:14:29;101302.28;;;14.07;78.72
70009;BME280;59542;37.950;-122.338;2023-04-29T02:16:56;101302.16;;;13.95;79.00
70009;BME280;59542;37.950;-122.338;2023-04-29T02:19:22;101298.19;;;13.97;79.00
70009;BME280;59542;37.950;-122.338;2023-04-29T02:21:48;101299.75;;;14.12;78.35
70009;BME280;59542;37.950;-122.338;2023-04-29T02:24:15;101301.19;;;13.83;79.27
70009;BME280;59542;37.950;-122.338;2023-04-29T02:26:41;101303.53;;;13.72;79.96
70009;BME280;59542;37.950;-122.338;2023-04-29T02:29:08;101308.28;;;13.77;80.04
70009;BME280;59542;37.950;-122.338;2023-04-29T02:31:34;101311.97;;;13.76;80.22
70009;BME280;59542;37.950;-122.338;2023-04-29T02:34:01;101310.06;;;13.45;81.32
70009;BME280;59542;37.950;-122.338;2023-04-29T02:36:27;101314.63;;;13.38;81.91
70009;BME280;59542;37.950;-122.338;2023-04-29T02:38:53;101312.13;;;13.50;80.82
70009;BME280;59542;37.950;-122.338;2023-04-29T02:41:21;101313.88;;;13.24;81.92
70009;BME280;59542;37.950;-122.338;2023-04-29T02:43:47;101318.63;;;13.29;82.05
70009;BME280;59542;37.950;-122.338;2023-04-29T02:46:14;101315.72;;;13.30;82.20
70009;BME280;59542;37.950;-122.338;2023-04-29T02:48:41;101320.88;;;13.38;81.59
70009;BME280;59542;37.950;-122.338;2023-04-29T02:51:07;101319.59;;;13.41;81.34
70009;BME280;59542;37.950;-122.338;2023-04-29T02:53:33;101325.88;;;13.22;82.21
70009;BME280;59542;37.950;-122.338;2023-04-29T02:56:00;101325.22;;;13.19;82.79
70009;BME280;59542;37.950;-122.338;2023-04-29T02:58:26;101324.84;;;13.16;83.04
70009;BME280;59542;37.950;-122.338;2023-04-29T03:00:52;101322.78;;;13.11;82.91
70009;BME280;59542;37.950;-122.338;2023-04-29T03:03:18;101327.38;;;12.71;84.28
70009;BME280;59542;37.950;-122.338;2023-04-29T03:05:45;101337.72;;;12.74;84.35
70009;BME280;59542;37.950;-122.338;2023-04-29T03:08:11;101343.31;;;12.66;84.87
70009;BME280;59542;37.950;-122.338;2023-04-29T03:10:37;101344.75;;;12.68;84.71
70009;BME280;59542;37.950;-122.338;2023-04-29T03:13:04;101341.44;;;12.66;85.40
70009;BME280;59542;37.950;-122.338;2023-04-29T03:15:30;101344.72;;;12.75;85.27
70009;BME280;59542;37.950;-122.338;2023-04-29T03:17:56;101343.50;;;12.78;85.14
70009;BME280;59542;37.950;-122.338;2023-04-29T03:20:26;101355.50;;;12.62;85.83
70009;BME280;59542;37.950;-122.338;2023-04-29T03:22:54;101346.00;;;12.66;85.88
70009;BME280;59542;37.950;-122.338;2023-04-29T03:25:20;101353.81;;;12.54;86.29
70009;BME280;59542;37.950;-122.338;2023-04-29T03:27:47;101361.66;;;12.49;85.95
70009;BME280;59542;37.950;-122.338;2023-04-29T03:30:13;101370.56;;;12.50;86.07
70009;BME280;59542;37.950;-122.338;2023-04-29T03:32:40;101364.78;;;12.46;86.58
70009;BME280;59542;37.950;-122.338;2023-04-29T03:35:06;101369.09;;;12.40;86.33
70009;BME280;59542;37.950;-122.338;2023-04-29T03:37:33;101370.75;;;12.48;86.54
70009;BME280;59542;37.950;-122.338;2023-04-29T03:39:59;101379.44;;;12.57;86.04
70009;BME280;59542;37.950;-122.338;2023-04-29T03:42:25;101374.28;;;12.55;85.87
70009;BME280;59542;37.950;-122.338;2023-04-29T03:44:51;101380.47;;;12.49;86.23
70009;BME280;59542;37.950;-122.338;2023-04-29T03:47:18;101377.59;;;12.51;86.44
70009;BME280;59542;37.950;-122.338;2023-04-29T03:49:44;101390.16;;;12.43;86.70
70009;BME280;59542;37.950;-122.338;2023-04-29T03:52:11;101394.75;;;12.50;86.73
70009;BME280;59542;37.950;-122.338;2023-04-29T03:54:37;101393.69;;;12.57;86.81
70009;BME280;59542;37.950;-122.338;2023-04-29T03:57:03;101393.09;;;12.55;85.89
70009;BME280;59542;37.950;-122.338;2023-04-29T03:59:30;101394.69;;;12.36;86.65
70009;BME280;59542;37.950;-122.338;2023-04-29T04:01:56;101394.47;;;12.31;87.57
70009;BME280;59542;37.950;-122.338;2023-04-29T04:04:23;101390.75;;;12.32;87.85
70009;BME280;59542;37.950;-122.338;2023-04-29T04:06:49;101397.38;;;12.30;87.15
70009;BME280;59542;37.950;-122.338;2023-04-29T04:09:19;101404.16;;;12.19;87.46
70009;BME280;59542;37.950;-122.338;2023-04-29T04:11:45;101404.19;;;12.32;87.03
70009;BME280;59542;37.950;-122.338;2023-04-29T04:14:12;101402.34;;;12.33;87.71
70009;BME280;59542;37.950;-122.338;2023-04-29T04:16:38;101410.41;;;12.39;87.19
70009;BME280;59542;37.950;-122.338;2023-04-29T04:19:05;101419.91;;;12.49;86.52
70009;BME280;59542;37.950;-122.338;2023-04-29T04:21:31;101428.38;;;12.39;86.92
70009;BME280;59542;37.950;-122.338;2023-04-29T04:23:57;101430.56;;;12.15;86.95
70009;BME280;59542;37.950;-122.338;2023-04-29T04:26:23;101436.78;;;12.16;87.15
70009;BME280;59542;37.950;-122.338;2023-04-29T04:28:50;101434.28;;;12.08;88.04
70009;BME280;59542;37.950;-122.338;2023-04-29T04:31:16;101436.97;;;12.08;88.97
70009;BME280;59542;37.950;-122.338;2023-04-29T04:33:42;101439.88;;;12.20;88.45
70009;BME280;59542;37.950;-122.338;2023-04-29T04:36:08;101454.13;;;12.20;88.09
70009;BME280;59542;37.950;-122.338;2023-04-29T04:38:34;101457.63;;;12.14;87.70
70009;BME280;59542;37.950;-122.338;2023-04-29T04:41:01;101452.09;;;12.22;87.83
70009;BME280;59542;37.950;-122.338;2023-04-29T04:43:27;101453.34;;;12.33;87.20
70009;BME280;59542;37.950;-122.338;2023-04-29T04:45:53;101457.88;;;12.32;86.90
70009;BME280;59542;37.950;-122.338;2023-04-29T04:48:20;101457.25;;;12.24;87.41
70009;BME280;59542;37.950;-122.338;2023-04-29T04:50:46;101458.66;;;12.13;87.94
70009;BME280;59542;37.950;-122.338;2023-04-29T04:53:12;101464.25;;;12.25;87.44
70009;BME280;59542;37.950;-122.338;2023-04-29T04:55:38;101470.22;;;12.20;87.98
70009;BME280;59542;37.950;-122.338;2023-04-29T04:58:04;101466.94;;;12.18;87.96
70009;BME280;59542;37.950;-122.338;2023-04-29T05:00:31;101470.41;;;12.12;88.03
70009;BME280;59542;37.950;-122.338;2023-04-29T05:02:57;101467.38;;;12.22;87.70
70009;BME280;59542;37.950;-122.338;2023-04-29T05:05:23;101469.16;;;12.08;88.31
70009;BME280;59542;37.950;-122.338;2023-04-29T05:07:50;101477.66;;;12.18;88.24
70009;BME280;59542;37.950;-122.338;2023-04-29T05:10:16;101478.06;;;12.15;88.05
70009;BME280;59542;37.950;-122.338;2023-04-29T05:12:42;101482.34;;;12.03;88.92
70009;BME280;59542;37.950;-122.338;2023-04-29T05:15:08;101485.47;;;12.06;88.91
70009;BME280;59542;37.950;-122.338;2023-04-29T05:17:35;101479.69;;;12.09;89.09
70009;BME280;59542;37.950;-122.338;2023-04-29T05:20:01;101488.31;;;11.98;88.84
70009;BME280;59542;37.950;-122.338;2023-04-29T05:22:28;101487.94;;;12.08;88.37
70009;BME280;59542;37.950;-122.338;2023-04-29T05:24:54;101486.16;;;12.22;87.05
70009;BME280;59542;37.950;-122.338;2023-04-29T05:27:27;101482.59;;;12.14;87.30
70009;BME280;59542;37.950;-122.338;2023-04-29T05:29:53;101485.53;;;12.26;86.33
70009;BME280;59542;37.950;-122.338;2023-04-29T05:32:20;101492.28;;;12.15;86.78
70009;BME280;59542;37.950;-122.338;2023-04-29T05:34:46;101498.13;;;12.26;86.41
70009;BME280;59542;37.950;-122.338;2023-04-29T05:37:13;101501.41;;;12.21;86.46
70009;BME280;59542;37.950;-122.338;2023-04-29T05:39:39;101506.38;;;12.24;86.17
70009;BME280;59542;37.950;-122.338;2023-04-29T05:42:05;101498.31;;;12.24;86.32
70009;BME280;59542;37.950;-122.338;2023-04-29T05:44:32;101509.44;;;12.21;86.36
70009;BME280;59542;37.950;-122.338;2023-04-29T05:46:59;101499.97;;;12.25;86.29
70009;BME280;59542;37.950;-122.338;2023-04-29T05:49:25;101501.25;;;12.29;86.06
70009;BME280;59542;37.950;-122.338;2023-04-29T05:51:51;101500.88;;;12.39;85.42
70009;BME280;59542;37.950;-122.338;2023-04-29T05:54:18;101499.81;;;12.33;85.54
70009;BME280;59542;37.950;-122.338;2023-04-29T05:56:44;101493.81;;;12.31;85.84
70009;BME280;59542;37.950;-122.338;2023-04-29T05:59:10;101502.50;;;12.33;85.58
70009;BME280;59542;37.950;-122.338;2023-04-29T06:01:37;101498.78;;;12.28;85.22
70009;BME280;59542;37.950;-122.338;2023-04-29T06:04:03;101496.50;;;12.31;85.08
70009;BME280;59542;37.950;-122.338;2023-04-29T06:06:30;101506.34;;;12.18;85.46
70009;BME280;59542;37.950;-122.338;2023-04-29T06:08:56;101500.75;;;12.06;86.04
70009;BME280;59542;37.950;-122.338;2023-04-29T06:11:23;101497.03;;;12.13;86.06
70009;BME280;59542;37.950;-122.338;2023-04-29T06:13:49;101496.31;;;12.33;84.95
70009;BME280;59542;37.950;-122.338;2023-04-29T06:16:15;101495.50;;;12.39;84.64
70009;BME280;59542;37.950;-122.338;2023-04-29T06:18:41;101493.41;;;12.28;85.11
70009;BME280;59542;37.950;-122.338;2023-04-29T06:21:08;101487.81;;;12.23;84.39
70009;BME280;59542;37.950;-122.338;2023-04-29T06:23:34;101492.13;;;12.24;84.79
70009;BME280;59542;37.950;-122.338;2023-04-29T06:26:00;101503.25;;;12.14;85.77
70009;BME280;59542;37.950;-122.338;2023-04-29T06:28:26;101497.75;;;11.87;87.13
70009;BME280;59542;37.950;-122.338;2023-04-29T06:30:54;101502.72;;;11.91;86.73
70009;BME280;59542;37.950;-122.338;2023-04-29T06:33:20;101502.50;;;11.92;87.08
70009;BME280;59542;37.950;-122.338;2023-04-29T06:35:47;101499.09;;;12.05;85.99
70009;BME280;59542;37.950;-122.338;2023-04-29T06:38:13;101505.56;;;11.82;86.53
70009;BME280;59542;37.950;-122.338;2023-04-29T06:40:39;101502.97;;;11.96;86.03
70009;BME280;59542;37.950;-122.338;2023-04-29T06:43:05;101511.38;;;11.93;85.93
70009;BME280;59542;37.950;-122.338;2023-04-29T06:45:32;101515.44;;;12.17;85.18
70009;BME280;59542;37.950;-122.338;2023-04-29T06:47:58;101514.66;;;12.23;84.94
70009;BME280;59542;37.950;-122.338;2023-04-29T06:50:24;101513.59;;;12.17;85.03
70009;BME280;59542;37.950;-122.338;2023-04-29T06:52:50;101516.19;;;12.04;85.52
70009;BME280;59542;37.950;-122.338;2023-04-29T06:55:17;101515.38;;;12.10;85.40
70009;BME280;59542;37.950;-122.338;2023-04-29T06:57:43;101512.91;;;12.08;85.43
70009;BME280;59542;37.950;-122.338;2023-04-29T07:00:09;101511.50;;;12.12;85.49
70009;BME280;59542;37.950;-122.338;2023-04-29T07:02:36;101513.34;;;12.12;85.46
70009;BME280;59542;37.950;-122.338;2023-04-29T07:05:04;101510.66;;;12.12;85.46
70009;BME280;59542;37.950;-122.338;2023-04-29T07:07:31;101512.13;;;12.21;84.91
70009;BME280;59542;37.950;-122.338;2023-04-29T07:09:57;101512.72;;;12.10;85.11
70009;BME280;59542;37.950;-122.338;2023-04-29T07:12:23;101519.75;;;12.11;85.36
70009;BME280;59542;37.950;-122.338;2023-04-29T07:14:49;101523.50;;;12.17;85.07
70009;BME280;59542;37.950;-122.338;2023-04-29T07:17:16;101518.03;;;11.97;85.39
70009;BME280;59542;37.950;-122.338;2023-04-29T07:19:42;101513.72;;;12.02;85.49
70009;BME280;59542;37.950;-122.338;2023-04-29T07:22:09;101515.38;;;12.03;85.40
70009;BME280;59542;37.950;-122.338;2023-04-29T07:24:35;101513.91;;;12.01;85.79
70009;BME280;59542;37.950;-122.338;2023-04-29T07:27:01;101519.66;;;11.91;86.06
70009;BME280;59542;37.950;-122.338;2023-04-29T07:29:27;101515.19;;;12.05;85.43
70009;BME280;59542;37.950;-122.338;2023-04-29T07:31:53;101523.06;;;12.13;84.84
70009;BME280;59542;37.950;-122.338;2023-04-29T07:34:20;101512.53;;;12.11;84.86
70009;BME280;59542;37.950;-122.338;2023-04-29T07:36:46;101519.09;;;12.09;85.12
70009;BME280;59542;37.950;-122.338;2023-04-29T07:39:12;101515.13;;;11.98;85.96
70009;BME280;59542;37.950;-122.338;2023-04-29T07:41:40;101516.94;;;11.84;86.71
70009;BME280;59542;37.950;-122.338;2023-04-29T07:44:06;101513.03;;;11.94;85.99
70009;BME280;59542;37.950;-122.338;2023-04-29T07:46:32;101513.44;;;11.91;86.01
70009;BME280;59542;37.950;-122.338;2023-04-29T07:48:58;101519.28;;;12.01;85.40
70009;BME280;59542;37.950;-122.338;2023-04-29T07:51:25;101519.28;;;12.01;85.37
70009;BME280;59542;37.950;-122.338;2023-04-29T07:53:53;101515.13;;;11.98;85.34
70009;BME280;59542;37.950;-122.338;2023-04-29T07:56:19;101514.97;;;12.00;85.47
70009;BME280;59542;37.950;-122.338;2023-04-29T07:58:47;101523.44;;;12.10;85.05
70009;BME280;59542;37.950;-122.338;2023-04-29T08:01:14;101517.63;;;12.00;84.79
70009;BME280;59542;37.950;-122.338;2023-04-29T08:03:40;101519.53;;;12.06;85.10
70009;BME280;59542;37.950;-122.338;2023-04-29T08:06:06;101520.13;;;12.08;84.63
70009;BME280;59542;37.950;-122.338;2023-04-29T08:08:32;101521.81;;;12.15;83.92
70009;BME280;59542;37.950;-122.338;2023-04-29T08:10:59;101519.69;;;12.04;84.75
70009;BME280;59542;37.950;-122.338;2023-04-29T08:13:25;101514.00;;;12.21;83.93
70009;BME280;59542;37.950;-122.338;2023-04-29T08:15:52;101512.75;;;12.17;83.78
70009;BME280;59542;37.950;-122.338;2023-04-29T08:18:18;101508.84;;;12.26;83.71
70009;BME280;59542;37.950;-122.338;2023-04-29T08:20:46;101504.72;;;12.23;83.50
70009;BME280;59542;37.950;-122.338;2023-04-29T08:23:14;101502.63;;;12.12;84.02
70009;BME280;59542;37.950;-122.338;2023-04-29T08:25:41;101506.13;;;12.12;84.09
70009;BME280;59542;37.950;-122.338;2023-04-29T08:28:08;101503.59;;;12.04;84.16
70009;BME280;59542;37.950;-122.338;2023-04-29T08:30:40;101501.78;;;12.11;83.93
70009;BME280;59542;37.950;-122.338;2023-04-29T08:33:07;101510.59;;;11.99;84.21
70009;BME280;59542;37.950;-122.338;2023-04-29T08:35:34;101500.66;;;11.93;84.81
70009;BME280;59542;37.950;-122.338;2023-04-29T08:38:04;101507.75;;;12.07;84.45
70009;BME280;59542;37.950;-122.338;2023-04-29T08:40:35;101502.31;;;11.94;84.51
70009;BME280;59542;37.950;-122.338;2023-04-29T08:43:03;101504.28;;;11.78;84.78
70009;BME280;59542;37.950;-122.338;2023-04-29T08:45:30;101507.69;;;11.94;84.15
70009;BME280;59542;37.950;-122.338;2023-04-29T08:48:00;101506.97;;;12.13;82.92
70009;BME280;59542;37.950;-122.338;2023-04-29T08:50:29;101496.41;;;11.77;84.42
70009;BME280;59542;37.950;-122.338;2023-04-29T08:52:57;101499.59;;;11.87;84.34
70009;BME280;59542;37.950;-122.338;2023-04-29T08:55:24;101496.50;;;11.83;84.02
70009;BME280;59542;37.950;-122.338;2023-04-29T08:57:53;101499.84;;;11.99;83.39
70009;BME280;59542;37.950;-122.338;2023-04-29T09:00:21;101501.94;;;11.97;84.19
70009;BME280;59542;37.950;-122.338;2023-04-29T09:02:50;101498.66;;;12.01;83.36
70009;BME280;59542;37.950;-122.338;2023-04-29T09:05:18;101508.19;;;12.10;82.48
70009;BME280;59542;37.950;-122.338;2023-04-29T09:07:45;101496.19;;;12.00;82.80
70009;BME280;59542;37.950;-122.338;2023-04-29T09:10:12;101500.31;;;12.09;82.11
70009;BME280;59542;37.950;-122.338;2023-04-29T09:12:39;101491.75;;;11.85;83.28
70009;BME280;59542;37.950;-122.338;2023-04-29T09:15:06;101494.00;;;11.82;83.28
70009;BME280;59542;37.950;-122.338;2023-04-29T09:17:43;101494.22;;;11.52;84.36
70009;BME280;59542;37.950;-122.338;2023-04-29T09:22:49;101488.25;;;11.57;83.95
70009;BME280;59542;37.950;-122.338;2023-04-29T09:25:16;101489.06;;;11.51;84.43
70009;BME280;59542;37.950;-122.338;2023-04-29T09:27:42;101479.78;;;11.53;84.61
70009;BME280;59542;37.950;-122.338;2023-04-29T09:30:09;101485.69;;;11.42;85.18
70009;BME280;59542;37.950;-122.338;2023-04-29T09:32:37;101479.13;;;11.45;85.04
70009;BME280;59542;37.950;-122.338;2023-04-29T09:35:22;101486.13;;;11.46;84.77
70009;BME280;59542;37.950;-122.338;2023-04-29T09:37:53;101487.97;;;11.45;84.94
70009;BME280;59542;37.950;-122.338;2023-04-29T09:40:32;101481.09;;;11.36;85.30
70009;BME280;59542;37.950;-122.338;2023-04-29T09:43:00;101489.63;;;11.46;84.94
70009;BME280;59542;37.950;-122.338;2023-04-29T09:45:45;101484.97;;;11.55;84.87
70009;BME280;59542;37.950;-122.338;2023-04-29T09:48:13;101493.59;;;11.22;86.41
70009;BME280;59542;37.950;-122.338;2023-04-29T09:50:43;101492.84;;;11.35;86.21
70009;BME280;59542;37.950;-122.338;2023-04-29T09:53:28;101489.59;;;11.40;85.98
70009;BME280;59542;37.950;-122.338;2023-04-29T09:56:00;101482.03;;;11.50;85.76
70009;BME280;59542;37.950;-122.338;2023-04-29T09:58:35;101483.47;;;11.52;85.28
70009;BME280;59542;37.950;-122.338;2023-04-29T10:01:05;101482.63;;;11.45;86.12
70009;BME280;59542;37.950;-122.338;2023-04-29T10:03:34;101487.53;;;11.42;86.15
70009;BME280;59542;37.950;-122.338;2023-04-29T10:06:02;101482.13;;;11.35;86.83
70009;BME280;59542;37.950;-122.338;2023-04-29T10:08:28;101472.72;;;11.46;86.43
70009;BME280;59542;37.950;-122.338;2023-04-29T10:10:59;101473.31;;;11.13;87.67
70009;BME280;59542;37.950;-122.338;2023-04-29T10:13:27;101476.25;;;11.18;87.93
70009;BME280;59542;37.950;-122.338;2023-04-29T10:16:10;101475.38;;;11.11;88.53
70009;BME280;59542;37.950;-122.338;2023-04-29T10:18:40;101478.72;;;11.20;88.44
70009;BME280;59542;37.950;-122.338;2023-04-29T10:21:08;101470.97;;;11.31;88.02
70009;BME280;59542;37.950;-122.338;2023-04-29T10:23:35;101485.59;;;11.29;88.26
70009;BME280;59542;37.950;-122.338;2023-04-29T10:26:02;101475.94;;;11.34;87.76
70009;BME280;59542;37.950;-122.338;2023-04-29T10:28:32;101468.13;;;11.33;87.24
70009;BME280;59542;37.950;-122.338;2023-04-29T10:31:01;101470.78;;;11.33;86.59
70009;BME280;59542;37.950;-122.338;2023-04-29T10:33:31;101472.25;;;11.35;86.77
70009;BME280;59542;37.950;-122.338;2023-04-29T10:36:01;101476.31;;;11.31;87.15
70009;BME280;59542;37.950;-122.338;2023-04-29T10:38:43;101475.69;;;11.29;87.22
70009;BME280;59542;37.950;-122.338;2023-04-29T10:41:22;101469.09;;;11.32;86.52
70009;BME280;59542;37.950;-122.338;2023-04-29T10:43:53;101484.13;;;11.26;86.71
70009;BME280;59542;37.950;-122.338;2023-04-29T10:46:24;101478.97;;;11.25;86.57
70009;BME280;59542;37.950;-122.338;2023-04-29T10:49:00;101486.88;;;11.33;86.56
70009;BME280;59542;37.950;-122.338;2023-04-29T10:51:42;101491.91;;;11.21;86.85
70009;BME280;59542;37.950;-122.338;2023-04-29T10:56:46;101493.22;;;11.32;86.06
70009;BME280;59542;37.950;-122.338;2023-04-29T10:59:22;101498.78;;;11.30;85.84
70009;BME280;59542;37.950;-122.338;2023-04-29T11:02:01;101502.34;;;11.37;85.36
70009;BME280;59542;37.950;-122.338;2023-04-29T11:04:30;101504.16;;;11.30;85.32
70009;BME280;59542;37.950;-122.338;2023-04-29T11:06:57;101499.38;;;11.26;85.71
70009;BME280;59542;37.950;-122.338;2023-04-29T11:12:20;101504.59;;;11.34;85.55
70009;BME280;59542;37.950;-122.338;2023-04-29T11:14:51;101513.75;;;11.18;86.70
70009;BME280;59542;37.950;-122.338;2023-04-29T11:17:17;101508.69;;;11.30;86.17
70009;BME280;59542;37.950;-122.338;2023-04-29T11:19:46;101505.19;;;11.29;86.03
70009;BME280;59542;37.950;-122.338;2023-04-29T11:24:49;101514.97;;;11.44;84.70
70009;BME280;59542;37.950;-122.338;2023-04-29T11:27:17;101515.06;;;11.57;84.54
70009;BME280;59542;37.950;-122.338;2023-04-29T11:29:45;101506.78;;;11.52;84.03
70009;BME280;59542;37.950;-122.338;2023-04-29T11:32:12;101503.91;;;11.53;84.16
70009;BME280;59542;37.950;-122.338;2023-04-29T11:34:38;101507.22;;;11.55;83.75
70009;BME280;59542;37.950;-122.338;2023-04-29T11:37:05;101500.81;;;11.50;83.85
70009;BME280;59542;37.950;-122.338;2023-04-29T11:39:34;101507.22;;;11.55;83.44
70009;BME280;59542;37.950;-122.338;2023-04-29T11:42:05;101500.16;;;11.48;83.81
70009;BME280;59542;37.950;-122.338;2023-04-29T11:44:35;101498.75;;;11.52;83.73
70009;BME280;59542;37.950;-122.338;2023-04-29T11:47:03;101499.53;;;11.46;84.25
70009;BME280;59542;37.950;-122.338;2023-04-29T11:49:30;101506.53;;;11.47;84.46
70009;BME280;59542;37.950;-122.338;2023-04-29T11:51:57;101510.78;;;11.34;85.14
70009;BME280;59542;37.950;-122.338;2023-04-29T11:54:28;101502.34;;;11.37;84.79
70009;BME280;59542;37.950;-122.338;2023-04-29T11:56:56;101507.13;;;11.14;85.81
70009;BME280;59542;37.950;-122.338;2023-04-29T11:59:23;101516.19;;;11.13;85.38
70009;BME280;59542;37.950;-122.338;2023-04-29T12:01:49;101517.50;;;11.24;84.49
70009;BME280;59542;37.950;-122.338;2023-04-29T12:04:19;101509.72;;;11.29;84.02
70009;BME280;59542;37.950;-122.338;2023-04-29T12:06:45;101505.56;;;11.26;83.78
70009;BME280;59542;37.950;-122.338;2023-04-29T12:09:11;101501.19;;;11.19;83.89
70009;BME280;59542;37.950;-122.338;2023-04-29T12:11:40;101501.00;;;10.99;84.64
70009;BME280;59542;37.950;-122.338;2023-04-29T12:14:06;101500.69;;;11.08;84.76
70009;BME280;59542;37.950;-122.338;2023-04-29T12:16:33;101490.44;;;10.91;85.22
70009;BME280;59542;37.950;-122.338;2023-04-29T12:19:00;101500.94;;;10.71;85.41
70009;BME280;59542;37.950;-122.338;2023-04-29T12:21:26;101500.25;;;10.83;85.15
70009;BME280;59542;37.950;-122.338;2023-04-29T12:23:53;101498.22;;;10.86;85.18
70009;BME280;59542;37.950;-122.338;2023-04-29T12:26:19;101499.41;;;11.04;84.28
70009;BME280;59542;37.950;-122.338;2023-04-29T12:28:47;101493.69;;;10.86;84.58
70009;BME280;59542;37.950;-122.338;2023-04-29T12:31:14;101505.69;;;10.90;84.67
70009;BME280;59542;37.950;-122.338;2023-04-29T12:33:42;101502.84;;;10.98;84.39
70009;BME280;59542;37.950;-122.338;2023-04-29T12:36:18;101498.56;;;11.04;84.40
70009;BME280;59542;37.950;-122.338;2023-04-29T12:38:45;101512.38;;;11.01;84.45